Time;durP1;ratioP1;P1;durP2;ratioP2;P2;SDS_P1;SDS_P2;PMS_P1;PMS_P2;Temp;Humidity;BMP_temperature;BMP_pressure;BME280_temperature;BME280_humidity;BME280_pressure;Samples;Min_cycle;Max_cycle;Signal;HPM_P1;HPM_P2
2023/12/10 00:01:58;;;;;;;0.60;0.20;;;9.30;99.90;;;;;;4845887;29;20453;-75
2023/12/10 00:04:26;;;;;;;1.23;0.90;;;9.40;99.90;;;;;;4841416;29;20467;-75
2023/12/10 00:06:57;;;;;;;5.70;1.60;;;9.40;99.90;;;;;;4835969;29;20543;-76
2023/12/10 00:09:26;;;;;;;4.40;0.73;;;9.40;99.90;;;;;;4842212;29;21025;-76
2023/12/10 00:11:54;;;;;;;0.60;0.10;;;9.50;99.90;;;;;;4835210;29;20486;-75
2023/12/10 00:14:22;;;;;;;1.10;1.00;;;9.40;99.90;;;;;;4841542;29;21022;-74
2023/12/10 00:16:51;;;;;;;0.90;0.67;;;9.40;99.90;;;;;;4841850;29;20510;-75
2023/12/10 00:19:18;;;;;;;2.70;0.50;;;9.50;99.90;;;;;;4841648;29;20524;-74
2023/12/10 00:21:47;;;;;;;1.20;0.67;;;9.40;99.90;;;;;;4842335;29;20885;-76
2023/12/10 00:24:15;;;;;;;0.70;0.30;;;9.40;99.90;;;;;;4852613;29;20453;-75
2023/12/10 00:26:44;;;;;;;0.60;0.10;;;9.40;99.90;;;;;;4852881;29;20471;-74
2023/12/10 00:29:12;;;;;;;0.60;0.10;;;9.30;99.90;;;;;;4843932;29;20539;-75
2023/12/10 00:31:43;;;;;;;0.60;0.23;;;9.30;99.90;;;;;;4841790;29;20459;-75
2023/12/10 00:34:11;;;;;;;8.00;1.07;;;9.30;99.90;;;;;;4841545;29;20448;-75
2023/12/10 00:36:40;;;;;;;7.90;1.17;;;9.30;99.90;;;;;;4841305;29;20476;-75
2023/12/10 00:39:09;;;;;;;1.23;1.13;;;9.30;99.90;;;;;;4841111;29;20578;-75
2023/12/10 00:41:37;;;;;;;2.20;1.47;;;9.30;99.90;;;;;;4843362;29;20459;-75
2023/12/10 00:44:06;;;;;;;2.57;0.60;;;9.30;99.90;;;;;;4844829;29;20552;-75
2023/12/10 00:46:34;;;;;;;2.93;0.70;;;9.30;99.90;;;;;;4844829;29;21038;-75
2023/12/10 00:49:02;;;;;;;2.10;0.63;;;9.30;99.90;;;;;;4844783;29;20989;-75
2023/12/10 00:51:31;;;;;;;1.13;0.50;;;9.30;99.90;;;;;;4844779;29;20452;-75
2023/12/10 00:53:59;;;;;;;1.63;1.53;;;9.20;99.90;;;;;;4837375;29;20547;-75
2023/12/10 00:56:27;;;;;;;2.63;1.60;;;9.30;99.90;;;;;;4844330;29;20473;-75
2023/12/10 00:58:55;;;;;;;3.23;1.90;;;9.20;99.90;;;;;;4844087;29;20479;-75
2023/12/10 01:01:24;;;;;;;0.70;0.40;;;9.30;99.90;;;;;;4844637;29;20448;-75
2023/12/10 01:03:52;;;;;;;2.87;0.60;;;9.20;99.90;;;;;;4844289;29;20466;-76
2023/12/10 01:06:20;;;;;;;0.73;0.20;;;9.20;99.90;;;;;;4844631;29;20460;-75
2023/12/10 01:08:48;;;;;;;0.77;0.40;;;9.30;99.90;;;;;;4844864;29;20455;-76
2023/12/10 01:11:16;;;;;;;0.80;0.47;;;9.20;99.90;;;;;;4844974;29;20539;-75
2023/12/10 01:13:44;;;;;;;0.90;0.63;;;9.30;99.90;;;;;;4845105;29;20539;-75
2023/12/10 01:16:16;;;;;;;0.60;0.10;;;9.30;99.90;;;;;;4845050;29;20454;-75
2023/12/10 01:18:47;;;;;;;0.60;0.17;;;9.30;99.90;;;;;;4845299;29;20478;-75
2023/12/10 01:21:16;;;;;;;0.60;0.40;;;9.30;99.90;;;;;;4845887;29;21242;-75
2023/12/10 01:23:44;;;;;;;0.60;0.30;;;9.30;99.90;;;;;;4845194;29;20498;-80
2023/12/10 01:26:14;;;;;;;0.60;0.10;;;9.30;99.90;;;;;;4846678;29;21297;-75
2023/12/10 01:28:42;;;;;;;0.60;0.13;;;9.40;99.90;;;;;;4841585;29;20460;-75
2023/12/10 01:31:10;;;;;;;0.70;0.37;;;9.40;99.90;;;;;;4832104;29;20448;-76
2023/12/10 01:33:38;;;;;;;0.60;0.10;;;9.30;99.90;;;;;;4846262;29;20832;-75
2023/12/10 01:36:09;;;;;;;0.60;0.10;;;9.30;99.90;;;;;;4846420;29;20563;-74
2023/12/10 01:38:37;;;;;;;2.73;1.23;;;9.40;99.90;;;;;;4846862;29;20476;-75
2023/12/10 01:41:05;;;;;;;0.60;0.17;;;9.40;99.90;;;;;;4847542;29;20483;-75
2023/12/10 01:43:33;;;;;;;2.23;2.10;;;9.30;99.90;;;;;;4845898;29;20461;-75
2023/12/10 01:46:01;;;;;;;0.80;0.30;;;9.40;99.90;;;;;;4845881;29;20929;-75
2023/12/10 01:48:30;;;;;;;0.60;0.10;;;9.30;99.90;;;;;;4845468;29;20483;-75
2023/12/10 01:50:59;;;;;;;1.13;0.50;;;9.40;99.90;;;;;;4847253;29;20751;-75
2023/12/10 01:53:28;;;;;;;0.70;0.40;;;9.40;99.90;;;;;;4846823;29;20499;-75
2023/12/10 01:55:57;;;;;;;1.90;1.63;;;9.40;99.90;;;;;;4846977;29;20460;-75
2023/12/10 01:58:25;;;;;;;0.70;0.53;;;9.50;99.90;;;;;;4847796;29;21030;-75
2023/12/10 02:00:53;;;;;;;0.60;0.10;;;9.50;99.90;;;;;;4854650;29;20546;-75
2023/12/10 02:03:21;;;;;;;0.60;0.10;;;9.50;99.90;;;;;;4856646;29;20509;-75
2023/12/10 02:05:50;;;;;;;0.60;0.10;;;9.60;99.90;;;;;;4847135;29;20452;-75
2023/12/10 02:08:19;;;;;;;0.60;0.10;;;9.70;99.90;;;;;;4843992;29;20473;-76
2023/12/10 02:10:48;;;;;;;0.60;0.10;;;9.60;99.90;;;;;;4843969;29;20453;-76
2023/12/10 02:13:18;;;;;;;0.60;0.20;;;9.60;99.90;;;;;;4844202;29;20820;-76
2023/12/10 02:15:46;;;;;;;3.80;1.13;;;9.50;99.90;;;;;;4844047;29;20456;-75
2023/12/10 02:18:17;;;;;;;4.00;1.70;;;9.40;99.90;;;;;;4843340;29;20476;-76
2023/12/10 02:20:45;;;;;;;0.60;0.40;;;9.50;99.90;;;;;;4843681;29;20865;-76
2023/12/10 02:23:26;;;;;;;0.80;0.27;;;9.40;99.90;;;;;;4843429;29;20453;-76
2023/12/10 02:25:57;;;;;;;1.27;1.17;;;9.40;99.90;;;;;;4844027;29;20940;-76
2023/12/10 02:28:25;;;;;;;0.60;0.10;;;9.40;99.90;;;;;;4843624;29;20537;-76
2023/12/10 02:30:53;;;;;;;0.80;0.57;;;9.40;99.90;;;;;;4844135;29;20509;-76
2023/12/10 02:33:21;;;;;;;0.70;0.30;;;;;;;;;;4843136;29;20484;-76
2023/12/10 02:35:50;;;;;;;6.13;1.27;;;9.40;99.90;;;;;;4843466;29;20456;-75
2023/12/10 02:38:21;;;;;;;1.23;0.83;;;9.40;99.90;;;;;;4842737;29;20559;-75
2023/12/10 02:40:49;;;;;;;2.40;1.13;;;9.40;99.90;;;;;;4844506;29;20548;-76
2023/12/10 02:43:19;;;;;;;7.30;1.90;;;9.50;99.90;;;;;;4845969;29;20459;-75
2023/12/10 02:45:47;;;;;;;2.50;0.90;;;9.50;99.90;;;;;;4844673;29;20493;-75
2023/12/10 02:48:21;;;;;;;12.23;1.13;;;9.50;99.90;;;;;;4843449;29;20472;-75
2023/12/10 02:50:50;;;;;;;4.30;1.47;;;9.50;99.90;;;;;;4842824;29;20452;-76
2023/12/10 02:53:18;;;;;;;2.93;0.87;;;9.50;99.90;;;;;;4843164;29;20472;-75
2023/12/10 02:55:46;;;;;;;5.30;0.80;;;;;;;;;;4843032;29;20888;-75
2023/12/10 02:58:15;;;;;;;1.80;1.43;;;9.50;99.90;;;;;;4842872;29;20475;-76
2023/12/10 03:00:44;;;;;;;5.87;0.40;;;9.50;99.90;;;;;;4842537;29;21007;-76
2023/12/10 03:03:12;;;;;;;31.10;2.70;;;9.60;99.90;;;;;;4842728;29;20483;-75
2023/12/10 03:05:40;;;;;;;0.60;0.17;;;9.60;99.90;;;;;;4843001;29;20448;-76
2023/12/10 03:08:08;;;;;;;1.37;1.10;;;9.70;99.90;;;;;;4843185;29;20843;-75
2023/12/10 03:10:36;;;;;;;10.20;1.97;;;9.70;99.90;;;;;;4841763;29;20535;-75
2023/12/10 03:13:04;;;;;;;6.07;1.57;;;9.80;99.90;;;;;;4842684;29;20471;-76
2023/12/10 03:15:32;;;;;;;0.60;0.10;;;9.80;99.90;;;;;;4842226;29;20452;-74
2023/12/10 03:18:02;;;;;;;0.60;0.20;;;9.80;99.90;;;;;;4841551;29;20524;-75
2023/12/10 03:20:30;;;;;;;0.60;0.20;;;9.80;99.90;;;;;;4842436;29;20541;-75
2023/12/10 03:22:58;;;;;;;1.53;0.40;;;9.70;99.90;;;;;;4841941;29;20552;-75
2023/12/10 03:25:26;;;;;;;0.70;0.30;;;9.60;99.90;;;;;;4841738;29;21000;-75
2023/12/10 03:27:54;;;;;;;1.50;0.70;;;9.50;99.90;;;;;;4840940;29;20509;-75
2023/12/10 03:30:22;;;;;;;1.93;0.20;;;9.40;99.90;;;;;;4841940;29;21118;-75
2023/12/10 03:32:51;;;;;;;1.33;0.30;;;9.30;99.90;;;;;;4842007;29;20465;-75
2023/12/10 03:35:20;;;;;;;0.60;0.10;;;9.30;99.90;;;;;;4842403;29;20452;-75
2023/12/10 03:37:48;;;;;;;0.60;0.10;;;9.30;99.90;;;;;;4842664;29;20478;-75
2023/12/10 03:40:16;;;;;;;0.60;0.10;;;9.40;99.90;;;;;;4842115;29;20452;-75
2023/12/10 03:42:44;;;;;;;0.60;0.10;;;9.50;99.90;;;;;;4841821;29;20537;-75
2023/12/10 03:45:12;;;;;;;0.60;0.10;;;9.40;99.90;;;;;;4841388;29;20456;-75
2023/12/10 03:47:46;;;;;;;0.60;0.20;;;9.50;99.90;;;;;;4841747;29;20566;-75
2023/12/10 03:50:15;;;;;;;0.60;0.10;;;9.30;99.90;;;;;;4835278;29;20538;-75
2023/12/10 03:52:44;;;;;;;0.60;0.33;;;;;;;;;;4841480;29;20490;-75
2023/12/10 03:55:12;;;;;;;0.60;0.10;;;9.30;99.90;;;;;;4841849;29;20512;-75
2023/12/10 03:57:40;;;;;;;0.63;0.33;;;9.30;99.90;;;;;;4841136;29;21076;-75
2023/12/10 04:00:09;;;;;;;0.60;0.20;;;9.30;99.90;;;;;;4834789;29;20480;-75
2023/12/10 04:02:37;;;;;;;0.60;0.10;;;9.30;99.90;;;;;;4840979;29;20484;-76
2023/12/10 04:05:11;;;;;;;3.53;0.83;;;9.20;99.90;;;;;;4841983;29;20468;-75
2023/12/10 04:07:39;;;;;;;15.67;1.87;;;9.10;99.90;;;;;;4842407;29;20475;-75
2023/12/10 04:10:09;;;;;;;0.60;0.20;;;9.10;99.90;;;;;;4841903;29;20452;-74
2023/12/10 04:12:37;;;;;;;1.13;0.53;;;9.10;99.90;;;;;;4842423;29;20446;-74
2023/12/10 04:15:07;;;;;;;0.60;0.10;;;9.10;99.90;;;;;;4841963;29;20807;-74
2023/12/10 04:17:35;;;;;;;0.60;0.10;;;9.10;99.90;;;;;;4844538;29;20483;-75
2023/12/10 04:20:03;;;;;;;0.70;0.40;;;9.20;99.90;;;;;;4845418;29;20452;-75
2023/12/10 04:22:31;;;;;;;0.60;0.10;;;9.20;99.90;;;;;;4845307;29;20992;-75
2023/12/10 04:24:59;;;;;;;6.10;0.53;;;9.20;99.90;;;;;;4845288;29;20499;-75
2023/12/10 04:27:28;;;;;;;0.87;0.37;;;9.20;99.90;;;;;;4844987;29;20511;-75
2023/12/10 04:29:56;;;;;;;3.10;0.53;;;9.20;99.90;;;;;;4845581;29;20452;-75
2023/12/10 04:32:24;;;;;;;1.33;0.33;;;9.10;99.90;;;;;;4845030;29;20494;-74
2023/12/10 04:34:52;;;;;;;1.00;0.40;;;9.20;99.90;;;;;;4845164;29;20463;-75
2023/12/10 04:37:20;;;;;;;0.60;0.10;;;9.20;99.90;;;;;;4845082;29;20471;-75
2023/12/10 04:39:48;;;;;;;0.60;0.10;;;9.10;99.90;;;;;;4845187;29;20494;-75
2023/12/10 04:42:16;;;;;;;0.87;0.40;;;9.10;99.90;;;;;;4845043;29;20487;-75
2023/12/10 04:44:46;;;;;;;7.27;0.77;;;9.20;99.90;;;;;;4845132;29;20500;-75
2023/12/10 04:47:14;;;;;;;0.60;0.10;;;9.20;99.90;;;;;;4844203;29;20507;-75
2023/12/10 04:49:42;;;;;;;7.77;0.50;;;9.10;99.90;;;;;;4844349;29;20534;-75
2023/12/10 04:52:10;;;;;;;0.60;0.10;;;9.10;99.90;;;;;;4837111;29;20546;-74
2023/12/10 04:54:38;;;;;;;1.67;1.50;;;9.10;99.90;;;;;;4845813;29;20884;-75
2023/12/10 04:57:06;;;;;;;1.37;1.07;;;9.10;99.90;;;;;;4856170;29;20484;-74
2023/12/10 04:59:34;;;;;;;0.60;0.30;;;9.20;99.90;;;;;;4857558;29;20460;-75
2023/12/10 05:02:04;;;;;;;1.23;0.77;;;9.20;99.90;;;;;;4844890;29;21010;-75
2023/12/10 05:04:32;;;;;;;1.13;0.60;;;9.20;99.90;;;;;;4845452;29;20451;-75
2023/12/10 05:07:00;;;;;;;0.60;0.20;;;9.10;99.90;;;;;;4844616;29;20497;-75
2023/12/10 05:09:28;;;;;;;2.73;0.30;;;9.10;99.90;;;;;;4844809;29;20455;-75
2023/12/10 05:11:56;;;;;;;1.70;0.83;;;9.10;99.90;;;;;;4844349;29;20452;-75
2023/12/10 05:14:24;;;;;;;0.70;0.30;;;9.10;99.90;;;;;;4844447;29;20833;-75
2023/12/10 05:16:52;;;;;;;0.80;0.40;;;9.10;99.90;;;;;;4843840;29;20548;-75
2023/12/10 05:19:21;;;;;;;0.70;0.47;;;9.10;99.90;;;;;;4844081;29;20480;-74
2023/12/10 05:21:49;;;;;;;10.87;0.83;;;9.10;99.90;;;;;;4843905;29;20575;-75
2023/12/10 05:24:17;;;;;;;0.80;0.53;;;9.10;99.90;;;;;;4843704;29;20472;-75
2023/12/10 05:26:45;;;;;;;4.70;2.70;;;9.10;99.90;;;;;;4842931;29;20488;-75
2023/12/10 05:29:13;;;;;;;1.90;0.53;;;9.10;99.90;;;;;;4843390;29;20453;-75
2023/12/10 05:31:41;;;;;;;0.70;0.47;;;9.10;99.90;;;;;;4844272;29;20480;-75
2023/12/10 05:34:09;;;;;;;4.63;1.00;;;9.10;99.90;;;;;;4844067;29;20547;-75
2023/12/10 05:36:39;;;;;;;0.60;0.10;;;9.10;99.90;;;;;;4843509;29;20472;-75
2023/12/10 05:39:07;;;;;;;0.70;0.33;;;9.00;99.90;;;;;;4843157;29;20460;-75
2023/12/10 05:41:37;;;;;;;6.33;0.60;;;9.00;99.90;;;;;;4843536;29;20491;-75
2023/12/10 05:44:05;;;;;;;3.63;0.90;;;8.90;99.90;;;;;;4844003;29;20576;-76
2023/12/10 05:46:34;;;;;;;4.57;0.57;;;8.90;99.90;;;;;;4843692;29;21022;-75
2023/12/10 05:49:02;;;;;;;1.30;1.13;;;8.90;99.90;;;;;;4843698;29;20456;-74
2023/12/10 05:51:31;;;;;;;22.23;0.90;;;9.00;99.90;;;;;;4844643;29;20460;-76
2023/12/10 05:54:00;;;;;;;2.10;0.50;;;8.90;99.90;;;;;;4845481;29;20452;-75
2023/12/10 05:56:28;;;;;;;11.23;1.90;;;8.90;99.90;;;;;;4848694;29;20460;-75
2023/12/10 05:58:56;;;;;;;6.10;1.30;;;8.90;99.90;;;;;;4847050;29;20464;-75
2023/12/10 06:01:24;;;;;;;13.43;1.27;;;9.00;99.90;;;;;;4844130;29;20517;-75
2023/12/10 06:03:52;;;;;;;0.87;0.43;;;9.00;99.90;;;;;;4843265;29;21007;-75
2023/12/10 06:06:20;;;;;;;3.90;0.63;;;9.00;99.90;;;;;;4844457;29;20514;-75
2023/12/10 06:08:48;;;;;;;0.80;0.30;;;9.10;99.90;;;;;;4844434;29;20453;-75
2023/12/10 06:11:18;;;;;;;13.30;1.40;;;9.10;99.90;;;;;;4844678;29;20478;-76
2023/12/10 06:13:46;;;;;;;1.30;0.40;;;9.10;99.90;;;;;;4844190;29;20920;-75
2023/12/10 06:16:15;;;;;;;3.17;0.93;;;;;;;;;;4836087;29;20475;-75
2023/12/10 06:18:43;;;;;;;0.60;0.20;;;9.10;99.90;;;;;;4843462;29;20897;-75
2023/12/10 06:21:11;;;;;;;4.57;0.60;;;9.10;99.90;;;;;;4843031;29;20457;-75
2023/12/10 06:23:39;;;;;;;2.67;1.17;;;9.10;99.90;;;;;;4843257;29;20580;-75
2023/12/10 06:26:07;;;;;;;0.93;0.73;;;9.10;99.90;;;;;;4843716;29;20872;-75
2023/12/10 06:28:37;;;;;;;3.07;0.93;;;9.10;99.90;;;;;;4840310;29;20474;-75
2023/12/10 06:31:05;;;;;;;6.33;1.80;;;9.20;99.90;;;;;;4842846;29;20520;-75
2023/12/10 06:33:33;;;;;;;7.33;2.20;;;9.20;99.90;;;;;;4842213;29;20524;-75
2023/12/10 06:36:01;;;;;;;0.70;0.37;;;9.20;99.90;;;;;;4842102;29;20496;-75
2023/12/10 06:38:29;;;;;;;1.87;1.67;;;9.20;99.90;;;;;;4841498;29;20479;-75
2023/12/10 06:40:57;;;;;;;5.73;1.50;;;9.20;99.90;;;;;;4841785;29;20905;-75
2023/12/10 06:43:26;;;;;;;1.10;0.47;;;9.20;99.90;;;;;;4842227;29;20484;-75
2023/12/10 06:45:58;;;;;;;3.67;0.53;;;9.20;99.90;;;;;;4841846;29;20478;-75
2023/12/10 06:48:26;;;;;;;0.80;0.33;;;9.20;99.90;;;;;;4841621;29;20473;-75
2023/12/10 06:50:54;;;;;;;3.43;0.80;;;9.20;99.90;;;;;;4842029;29;20460;-75
2023/12/10 06:53:22;;;;;;;1.07;0.50;;;9.20;99.90;;;;;;4842406;29;20488;-75
2023/12/10 06:55:50;;;;;;;6.20;5.60;;;9.20;99.90;;;;;;4842013;29;20461;-75
2023/12/10 06:58:18;;;;;;;4.50;0.87;;;9.20;99.90;;;;;;4834462;29;20992;-75
2023/12/10 07:00:46;;;;;;;0.60;0.10;;;9.30;99.90;;;;;;4841855;29;20529;-76
2023/12/10 07:03:16;;;;;;;1.33;0.30;;;9.30;99.90;;;;;;4842192;29;20620;-75
2023/12/10 07:05:44;;;;;;;1.57;0.83;;;9.30;99.90;;;;;;4841858;29;20493;-76
2023/12/10 07:08:13;;;;;;;6.57;1.70;;;9.30;99.90;;;;;;4842107;29;20484;-76
2023/12/10 07:10:41;;;;;;;4.40;1.27;;;9.20;99.90;;;;;;4842576;29;20491;-79
2023/12/10 07:13:10;;;;;;;6.70;0.77;;;9.20;99.90;;;;;;4841898;29;20871;-76
2023/12/10 07:15:38;;;;;;;6.50;0.80;;;9.20;99.90;;;;;;4839353;29;20548;-76
2023/12/10 07:18:06;;;;;;;0.60;0.20;;;9.20;99.90;;;;;;4841547;29;20505;-76
2023/12/10 07:20:36;;;;;;;0.60;0.23;;;9.20;99.90;;;;;;4842270;29;20499;-76
2023/12/10 07:23:03;;;;;;;1.43;0.40;;;9.20;99.90;;;;;;4841450;29;21055;-75
2023/12/10 07:25:31;;;;;;;1.37;0.37;;;9.20;99.90;;;;;;4841565;29;20483;-75
2023/12/10 07:27:59;;;;;;;9.07;1.27;;;9.20;99.90;;;;;;4838741;29;20539;-75
2023/12/10 07:30:27;;;;;;;3.83;3.63;;;9.20;99.90;;;;;;4841387;29;20460;-75
2023/12/10 07:32:56;;;;;;;5.90;1.50;;;9.10;99.90;;;;;;4841448;29;20479;-75
2023/12/10 07:35:24;;;;;;;3.27;0.93;;;9.00;99.90;;;;;;4841277;29;20531;-75
2023/12/10 07:37:54;;;;;;;1.10;0.47;;;9.10;99.90;;;;;;4841726;29;20563;-76
2023/12/10 07:40:22;;;;;;;11.00;3.20;;;9.10;99.90;;;;;;4834903;29;20931;-75
2023/12/10 07:42:51;;;;;;;4.07;3.30;;;9.10;99.90;;;;;;4841446;29;20549;-76
2023/12/10 07:45:19;;;;;;;3.90;2.07;;;9.10;99.90;;;;;;4853935;29;20448;-75
2023/12/10 07:47:47;;;;;;;0.83;0.50;;;9.10;99.90;;;;;;4841368;29;20987;-76
2023/12/10 07:50:16;;;;;;;1.47;0.50;;;9.10;99.90;;;;;;4840578;29;20802;-75
2023/12/10 07:52:44;;;;;;;0.70;0.33;;;9.20;99.90;;;;;;4843288;29;20490;-77
2023/12/10 07:55:13;;;;;;;3.80;0.60;;;9.20;99.90;;;;;;4848624;29;20971;-75
2023/12/10 07:57:41;;;;;;;2.80;1.20;;;9.20;99.90;;;;;;4840986;29;20486;-75
2023/12/10 08:00:13;;;;;;;5.53;0.43;;;9.20;99.90;;;;;;4840593;29;20445;-75
2023/12/10 08:02:42;;;;;;;4.73;1.80;;;9.30;99.90;;;;;;4837692;29;20614;-75
2023/12/10 08:05:10;;;;;;;0.60;0.30;;;9.40;99.90;;;;;;4841445;29;20487;-75
2023/12/10 08:07:38;;;;;;;0.90;0.47;;;9.50;99.90;;;;;;4840042;29;20488;-75
2023/12/10 08:10:07;;;;;;;4.40;1.00;;;9.50;99.90;;;;;;4839715;29;20979;-74
2023/12/10 08:12:37;;;;;;;0.60;0.10;;;9.50;99.90;;;;;;4839962;29;20894;-76
2023/12/10 08:15:05;;;;;;;0.60;0.10;;;9.60;99.90;;;;;;4840623;29;20531;-76
2023/12/10 08:17:33;;;;;;;0.60;0.20;;;9.60;99.90;;;;;;4840929;29;20483;-75
2023/12/10 08:20:02;;;;;;;7.70;0.67;;;9.60;99.90;;;;;;4840349;29;20505;-75
2023/12/10 08:22:31;;;;;;;2.70;0.70;;;9.70;99.90;;;;;;4839681;29;20537;-74
2023/12/10 08:24:59;;;;;;;1.20;0.60;;;9.70;99.90;;;;;;4841244;29;20277;-75
2023/12/10 08:27:27;;;;;;;2.97;1.10;;;9.70;99.90;;;;;;4837993;29;20475;-75
2023/12/10 08:29:56;;;;;;;3.30;2.37;;;9.70;99.90;;;;;;4840419;29;20452;-74
2023/12/10 08:32:24;;;;;;;5.43;0.47;;;9.80;99.90;;;;;;4838125;29;20551;-74
2023/12/10 08:34:54;;;;;;;4.73;0.97;;;9.80;99.90;;;;;;4842314;29;20513;-75
2023/12/10 08:37:22;;;;;;;6.83;2.00;;;9.80;99.90;;;;;;4842561;29;20966;-75
2023/12/10 08:39:51;;;;;;;7.13;2.50;;;9.80;99.90;;;;;;4841864;29;20464;-75
2023/12/10 08:42:18;;;;;;;4.57;0.73;;;9.80;99.90;;;;;;4844332;29;20449;-73
2023/12/10 08:44:46;;;;;;;1.53;1.17;;;9.90;99.90;;;;;;4849729;29;20495;-76
2023/12/10 08:47:16;;;;;;;7.27;3.20;;;9.80;99.90;;;;;;4849421;29;20512;-74
2023/12/10 08:49:44;;;;;;;7.03;3.17;;;9.80;99.90;;;;;;4847066;29;20456;-74
2023/12/10 08:52:12;;;;;;;1.27;0.60;;;9.80;99.90;;;;;;4848260;29;20471;-74
2023/12/10 08:54:40;;;;;;;6.40;0.93;;;9.80;99.90;;;;;;4844534;29;20473;-74
2023/12/10 08:57:08;;;;;;;2.53;1.03;;;9.80;99.90;;;;;;4841349;29;21008;-76
2023/12/10 08:59:36;;;;;;;0.70;0.30;;;9.80;99.90;;;;;;4840509;29;20470;-74
2023/12/10 09:02:04;;;;;;;0.60;0.10;;;9.80;99.90;;;;;;4842455;29;20516;-75
2023/12/10 09:04:34;;;;;;;0.60;0.20;;;9.90;99.90;;;;;;4844708;29;20544;-77
2023/12/10 09:07:02;;;;;;;0.70;0.30;;;9.90;99.90;;;;;;4842354;29;20479;-75
2023/12/10 09:09:32;;;;;;;2.73;0.67;;;9.90;99.90;;;;;;4844954;29;20448;-76
2023/12/10 09:12:00;;;;;;;6.80;3.10;;;9.70;99.90;;;;;;4845307;29;20450;-76
2023/12/10 09:14:28;;;;;;;0.60;0.20;;;;;;;;;;4846284;29;20512;-74
2023/12/10 09:16:58;;;;;;;1.07;0.57;;;9.90;99.90;;;;;;4850941;29;20509;-75
2023/12/10 09:19:27;;;;;;;5.83;1.33;;;9.90;99.90;;;;;;4853191;29;20494;-73
2023/12/10 09:21:57;;;;;;;3.50;0.97;;;9.90;99.90;;;;;;4848467;29;20456;-75
2023/12/10 09:24:26;;;;;;;0.60;0.30;;;10.00;99.90;;;;;;4846525;29;20852;-78
2023/12/10 09:26:56;;;;;;;7.70;2.83;;;10.10;99.90;;;;;;4846532;29;20479;-74
2023/12/10 09:29:24;;;;;;;40.90;3.93;;;10.10;99.90;;;;;;4847532;29;20482;-77
2023/12/10 09:31:52;;;;;;;1.53;0.73;;;10.10;99.90;;;;;;4848644;29;20461;-76
2023/12/10 09:34:20;;;;;;;0.70;0.40;;;10.10;99.90;;;;;;4848564;29;20539;-77
2023/12/10 09:36:51;;;;;;;1.57;0.43;;;10.10;99.90;;;;;;4845104;29;21034;-77
2023/12/10 09:39:21;;;;;;;0.70;0.20;;;10.20;99.90;;;;;;4843664;29;20510;-77
2023/12/10 09:41:49;;;;;;;0.60;0.20;;;10.30;99.90;;;;;;4852819;29;20463;-77
2023/12/10 09:44:17;;;;;;;1.10;0.43;;;10.30;99.90;;;;;;4850557;29;20492;-77
2023/12/10 09:46:45;;;;;;;1.97;1.07;;;10.30;99.90;;;;;;4848311;29;20571;-75
2023/12/10 09:49:15;;;;;;;1.03;0.93;;;10.30;99.90;;;;;;4848517;29;20456;-76
2023/12/10 09:51:43;;;;;;;1.27;0.30;;;10.30;99.90;;;;;;4848453;29;20443;-76
2023/12/10 09:54:11;;;;;;;2.00;0.70;;;10.40;99.90;;;;;;4848572;29;20460;-75
2023/12/10 09:56:41;;;;;;;1.30;0.77;;;10.40;99.90;;;;;;4848931;29;20506;-76
2023/12/10 09:59:09;;;;;;;5.33;1.93;;;10.40;99.90;;;;;;4846100;29;20460;-76
2023/12/10 10:01:37;;;;;;;0.60;0.10;;;10.40;99.90;;;;;;4849939;29;20500;-74
2023/12/10 10:04:05;;;;;;;0.60;0.10;;;10.50;99.90;;;;;;4846329;29;20502;-76
2023/12/10 10:06:34;;;;;;;6.20;1.30;;;;;;;;;;4846618;29;20456;-76
2023/12/10 10:09:04;;;;;;;1.47;0.60;;;10.50;99.90;;;;;;4843973;29;20481;-74
2023/12/10 10:11:33;;;;;;;2.80;1.27;;;10.50;99.90;;;;;;4841899;29;20459;-76
2023/12/10 10:14:03;;;;;;;2.50;0.77;;;10.50;99.90;;;;;;4844189;29;20477;-75
2023/12/10 10:16:32;;;;;;;4.90;1.20;;;10.50;99.90;;;;;;4848401;29;20539;-76
2023/12/10 10:19:01;;;;;;;3.60;0.50;;;;;;;;;;4852924;29;20460;-76
2023/12/10 10:21:31;;;;;;;0.60;0.20;;;10.70;99.90;;;;;;4847865;29;20455;-76
2023/12/10 10:23:59;;;;;;;4.97;1.37;;;10.70;99.90;;;;;;4847601;29;20821;-75
2023/12/10 10:26:27;;;;;;;2.53;1.13;;;10.80;99.90;;;;;;4848966;29;20452;-76
2023/12/10 10:28:56;;;;;;;1.97;0.83;;;;;;;;;;4846968;29;20453;-76
2023/12/10 10:31:25;;;;;;;6.50;0.63;;;10.90;99.90;;;;;;4843892;29;20468;-76
2023/12/10 10:33:55;;;;;;;6.10;0.90;;;10.90;99.90;;;;;;4844298;29;20987;-73
2023/12/10 10:36:23;;;;;;;1.77;0.50;;;10.90;99.90;;;;;;4842927;29;20536;-76
2023/12/10 10:38:53;;;;;;;0.70;0.40;;;10.90;99.90;;;;;;4844338;29;20477;-75
2023/12/10 10:41:22;;;;;;;9.40;1.57;;;10.90;99.90;;;;;;4842242;29;20452;-77
2023/12/10 10:43:50;;;;;;;0.60;0.20;;;11.00;99.90;;;;;;4843151;29;20482;-76
2023/12/10 10:46:19;;;;;;;1.47;0.80;;;11.00;99.90;;;;;;4842846;29;20555;-76
2023/12/10 10:48:51;;;;;;;2.50;0.60;;;10.90;99.90;;;;;;4851850;29;21153;-75
2023/12/10 10:51:23;;;;;;;1.60;0.40;;;10.90;99.90;;;;;;4856334;29;20475;-74
2023/12/10 10:53:54;;;;;;;1.23;0.40;;;11.00;99.90;;;;;;4852773;29;20537;-76
2023/12/10 10:56:22;;;;;;;2.90;0.30;;;11.00;99.90;;;;;;4846691;29;20463;-76
2023/12/10 10:58:50;;;;;;;1.13;0.17;;;11.00;99.90;;;;;;4847044;29;20556;-77
2023/12/10 11:01:36;;;;;;;0.60;0.20;;;11.00;99.90;;;;;;4848815;29;20489;-77
2023/12/10 11:04:06;;;;;;;5.60;1.27;;;11.10;99.90;;;;;;4847304;29;20456;-77
2023/12/10 11:06:36;;;;;;;7.07;1.10;;;11.10;99.90;;;;;;4843381;29;20554;-76
2023/12/10 11:09:05;;;;;;;0.60;0.10;;;11.20;99.90;;;;;;4843649;29;20542;-75
2023/12/10 11:11:38;;;;;;;0.60;0.10;;;11.20;99.90;;;;;;4838535;29;20449;-75
2023/12/10 11:14:20;;;;;;;8.13;2.70;;;11.30;99.90;;;;;;4842404;29;20461;-76
2023/12/10 11:16:54;;;;;;;4.20;1.27;;;11.30;99.90;;;;;;4842914;29;21038;-74
2023/12/10 11:19:24;;;;;;;5.47;5.17;;;11.30;99.90;;;;;;4844687;29;20485;-75
2023/12/10 11:21:52;;;;;;;1.53;0.70;;;11.40;99.90;;;;;;4843451;29;20536;-79
2023/12/10 11:24:20;;;;;;;2.53;0.43;;;11.30;99.90;;;;;;4842794;29;20826;-75
2023/12/10 11:26:48;;;;;;;0.93;0.20;;;11.30;99.90;;;;;;4843108;29;20485;-75
2023/12/10 11:29:16;;;;;;;4.00;1.73;;;11.30;99.90;;;;;;4842249;29;20855;-76
2023/12/10 11:31:45;;;;;;;7.60;1.03;;;11.40;99.90;;;;;;4842505;29;20484;-75
2023/12/10 11:34:13;;;;;;;2.97;1.30;;;11.50;99.90;;;;;;4842645;29;20448;-75
2023/12/10 11:36:49;;;;;;;0.90;0.50;;;11.60;99.90;;;;;;4842143;29;20464;-76
2023/12/10 11:39:17;;;;;;;3.67;1.00;;;11.60;99.90;;;;;;4842266;29;20504;-76
2023/12/10 11:41:45;;;;;;;1.10;0.20;;;11.60;99.90;;;;;;4842203;29;20457;-76
2023/12/10 11:44:16;;;;;;;2.70;0.93;;;11.60;99.90;;;;;;4841238;29;20568;-76
2023/12/10 11:46:47;;;;;;;1.67;0.60;;;11.50;99.90;;;;;;4842357;29;20527;-75
2023/12/10 11:49:19;;;;;;;3.23;0.93;;;11.50;99.90;;;;;;4840731;29;20461;-75
2023/12/10 11:51:49;;;;;;;3.60;1.67;;;11.50;99.90;;;;;;4841952;29;20458;-76
2023/12/10 11:54:18;;;;;;;1.40;0.70;;;11.50;99.90;;;;;;4840985;29;20464;-76
2023/12/10 11:56:46;;;;;;;1.00;0.30;;;11.50;99.90;;;;;;4841457;29;20476;-76
2023/12/10 11:59:16;;;;;;;5.20;0.80;;;11.50;99.90;;;;;;4841572;29;20444;-77
2023/12/10 12:01:46;;;;;;;6.13;1.13;;;11.50;99.90;;;;;;4841903;29;20525;-77
2023/12/10 12:04:14;;;;;;;1.00;0.63;;;11.50;99.90;;;;;;4842357;29;20464;-75
2023/12/10 12:06:43;;;;;;;2.50;0.33;;;11.60;99.90;;;;;;4842114;29;20492;-76
2023/12/10 12:09:19;;;;;;;4.77;1.77;;;11.60;99.90;;;;;;4842036;29;20456;-76
2023/12/10 12:11:50;;;;;;;1.17;0.37;;;11.60;99.90;;;;;;4842511;29;20489;-76
2023/12/10 12:14:20;;;;;;;0.97;0.50;;;11.50;99.90;;;;;;4842237;29;20462;-76
2023/12/10 12:16:48;;;;;;;0.60;0.20;;;11.60;99.90;;;;;;4842112;29;20477;-76
2023/12/10 12:19:25;;;;;;;1.17;0.20;;;11.50;99.90;;;;;;4842088;29;20456;-76
2023/12/10 12:21:55;;;;;;;1.87;1.43;;;11.40;99.90;;;;;;4842219;29;20880;-76
2023/12/10 12:24:25;;;;;;;2.00;0.83;;;;;;;;;;4842312;29;20901;-75
2023/12/10 12:26:53;;;;;;;1.93;1.10;;;11.40;99.90;;;;;;4842287;29;20581;-76
2023/12/10 12:29:21;;;;;;;1.90;0.40;;;11.40;99.90;;;;;;4842300;29;20451;-76
2023/12/10 12:31:49;;;;;;;6.33;1.00;;;11.40;99.90;;;;;;4844285;29;20549;-77
2023/12/10 12:34:37;;;;;;;3.43;0.30;;;11.30;99.90;;;;;;4841470;29;20473;-76
2023/12/10 12:37:05;;;;;;;1.67;0.37;;;11.30;99.90;;;;;;4845232;29;20470;-76
2023/12/10 12:39:35;;;;;;;2.50;1.93;;;11.30;99.90;;;;;;4847188;29;21038;-77
2023/12/10 12:42:03;;;;;;;0.70;0.20;;;11.30;99.90;;;;;;4848179;29;20465;-76
2023/12/10 12:44:31;;;;;;;2.70;1.70;;;11.30;99.90;;;;;;4848642;29;20513;-77
2023/12/10 12:46:59;;;;;;;1.03;0.40;;;11.30;99.90;;;;;;4848435;29;20493;-76
2023/12/10 12:49:27;;;;;;;1.43;0.40;;;11.30;99.90;;;;;;4846227;29;20451;-75
2023/12/10 12:51:56;;;;;;;2.77;1.10;;;11.30;99.90;;;;;;4847324;29;20491;-75
2023/12/10 12:54:24;;;;;;;1.63;0.40;;;11.30;99.90;;;;;;4848315;29;20833;-74
2023/12/10 12:56:53;;;;;;;3.30;0.97;;;11.30;99.90;;;;;;4846723;29;20474;-75
2023/12/10 12:59:21;;;;;;;1.00;0.63;;;11.20;99.90;;;;;;4846423;29;20541;-75
2023/12/10 13:01:49;;;;;;;1.20;0.40;;;11.20;99.90;;;;;;4846681;29;20453;-74
2023/12/10 13:04:17;;;;;;;0.60;0.10;;;11.30;99.90;;;;;;4847340;29;20518;-75